createdAt,value
2022-11-05T00:00:31.541Z,101252.84
2022-11-05T00:03:17.139Z,101258.16
2022-11-05T00:06:03.541Z,101257.22
2022-11-05T00:08:49.022Z,101257.22
2022-11-05T00:11:18.672Z,101258.09
2022-11-05T00:14:04.053Z,101252.75
2022-11-05T00:16:47.109Z,101262.50
2022-11-05T00:19:15.058Z,101266.94
2022-11-05T00:22:00.133Z,101274.03
2022-11-05T00:24:45.367Z,101274.00
2022-11-05T00:27:15.046Z,101281.06
2022-11-05T00:29:42.984Z,101279.28
2022-11-05T00:32:10.855Z,101282.81
2022-11-05T00:34:38.660Z,101286.38
2022-11-05T00:37:06.478Z,101282.78
2022-11-05T00:39:34.333Z,101292.56
2022-11-05T00:42:19.651Z,101291.66
2022-11-05T00:45:02.096Z,101298.75
2022-11-05T00:47:48.509Z,101302.28
2022-11-05T00:50:16.828Z,101291.63
2022-11-05T00:52:56.803Z,101298.75
2022-11-05T00:55:26.125Z,101301.44
2022-11-05T00:57:54.031Z,101296.09
2022-11-05T01:00:24.563Z,101296.09
2022-11-05T01:02:52.575Z,101304.06
2022-11-05T01:05:20.713Z,101297.84
2022-11-05T01:07:48.601Z,101299.56
2022-11-05T01:10:16.452Z,101299.56
2022-11-05T01:12:44.575Z,101302.22
2022-11-05T01:15:12.618Z,101311.06
2022-11-05T01:17:41.965Z,101312.84
2022-11-05T01:20:10.985Z,101317.22
2022-11-05T01:22:38.918Z,101326.09
2022-11-05T01:25:08.523Z,101321.63
2022-11-05T01:27:37.401Z,101324.28
2022-11-05T01:30:06.159Z,101332.25
2022-11-05T01:32:35.341Z,101333.97
2022-11-05T01:35:04.913Z,101334.84
2022-11-05T01:37:33.193Z,101335.72
2022-11-05T01:40:01.021Z,101347.22
2022-11-05T01:42:29.725Z,101338.31
2022-11-05T01:45:00.699Z,101342.75
2022-11-05T01:47:40.411Z,101345.38
2022-11-05T01:50:28.503Z,101353.38
2022-11-05T01:53:02.500Z,101343.59
2022-11-05T01:55:35.482Z,101346.19
2022-11-05T01:58:07.656Z,101351.50
2022-11-05T02:00:36.113Z,101351.50
2022-11-05T02:03:04.017Z,101353.22
2022-11-05T02:05:34.875Z,101350.53
2022-11-05T02:08:03.689Z,101353.19
2022-11-05T02:10:31.781Z,101354.91
2022-11-05T02:13:00.245Z,101354.91
2022-11-05T02:15:37.818Z,101355.81
2022-11-05T02:18:18.500Z,101355.78
2022-11-05T02:20:56.117Z,101363.69
2022-11-05T02:23:59.418Z,101358.34
2022-11-05T02:26:59.706Z,101359.25
2022-11-05T02:29:55.902Z,101358.31
2022-11-05T02:32:38.693Z,101365.38
2022-11-05T02:35:23.027Z,101371.56
2022-11-05T02:37:54.381Z,101375.09
2022-11-05T02:40:30.274Z,101368.88
2022-11-05T02:43:04.869Z,101367.94
2022-11-05T02:45:48.204Z,101371.44
2022-11-05T02:48:25.597Z,101374.09
2022-11-05T02:50:59.758Z,101371.41
2022-11-05T02:53:35.001Z,101356.38
2022-11-05T02:56:08.797Z,101372.34
2022-11-05T02:58:36.640Z,101362.56
2022-11-05T03:01:07.822Z,101374.91
2022-11-05T03:03:41.080Z,101366.03
2022-11-05T03:06:49.552Z,101358.88
2022-11-05T03:09:45.283Z,101355.34
2022-11-05T03:12:23.045Z,101353.56
2022-11-05T03:15:00.623Z,101352.66
2022-11-05T03:17:37.655Z,101351.69
2022-11-05T03:20:18.910Z,101354.31
2022-11-05T03:22:52.886Z,101355.16
2022-11-05T03:25:23.730Z,101358.69
2022-11-05T03:27:55.769Z,101361.31
2022-11-05T03:30:25.049Z,101369.28
2022-11-05T03:32:58.009Z,101371.88
2022-11-05T03:35:31.845Z,101368.25
2022-11-05T03:38:04.717Z,101372.69
2022-11-05T03:40:36.025Z,101388.59
2022-11-05T03:43:07.757Z,101383.25
2022-11-05T03:45:39.925Z,101390.28
2022-11-05T03:48:10.521Z,101390.25
2022-11-05T03:50:44.354Z,101393.72
2022-11-05T03:53:16.511Z,101398.13
2022-11-05T03:55:52.050Z,101398.09
2022-11-05T03:58:22.477Z,101398.94
2022-11-05T04:00:52.110Z,101391.88
2022-11-05T04:03:20.377Z,101393.66
2022-11-05T04:06:10.415Z,101401.63
2022-11-05T04:08:55.684Z,101414.03
2022-11-05T04:11:41.111Z,101406.94
2022-11-05T04:14:08.909Z,101406.03
2022-11-05T04:17:02.789Z,101416.66
2022-11-05T04:19:48.178Z,101405.94
2022-11-05T04:22:34.593Z,101411.22
2022-11-05T04:25:02.485Z,101413.84
2022-11-05T04:27:30.313Z,101413.84
2022-11-05T04:30:15.374Z,101414.72
2022-11-05T04:32:43.198Z,101411.13
2022-11-05T04:35:11.003Z,101411.09
2022-11-05T04:37:40.229Z,101407.50
2022-11-05T04:40:09.188Z,101410.16
2022-11-05T04:42:36.964Z,101413.66
2022-11-05T04:45:05.456Z,101409.22
2022-11-05T04:47:33.269Z,101421.56
2022-11-05T04:50:01.183Z,101424.22
2022-11-05T04:52:29.014Z,101421.50
2022-11-05T04:54:58.253Z,101426.72
2022-11-05T04:57:26.029Z,101427.53
2022-11-05T04:59:55.048Z,101424.03
2022-11-05T05:02:22.866Z,101428.44
2022-11-05T05:04:50.669Z,101425.72
2022-11-05T05:07:18.844Z,101427.50
2022-11-05T05:09:46.617Z,101421.25
2022-11-05T05:12:16.264Z,101423.91
2022-11-05T05:14:44.111Z,101423.06
2022-11-05T05:17:11.964Z,101433.69
2022-11-05T05:19:53.599Z,101435.56
2022-11-05T05:22:21.385Z,101438.28
2022-11-05T05:24:52.711Z,101433.94
2022-11-05T05:27:22.841Z,101438.47
2022-11-05T05:29:50.690Z,101438.56
2022-11-05T05:32:18.567Z,101442.22
2022-11-05T05:34:46.374Z,101439.63
2022-11-05T05:37:14.219Z,101440.63
2022-11-05T05:39:42.071Z,101438.94
2022-11-05T05:42:09.951Z,101447.84
2022-11-05T05:44:39.598Z,101440.81
2022-11-05T05:47:07.838Z,101451.50
2022-11-05T05:49:35.664Z,101454.22
2022-11-05T05:52:03.580Z,101452.41
2022-11-05T05:54:34.206Z,101452.44
2022-11-05T05:57:04.875Z,101445.31
2022-11-05T05:59:32.707Z,101456.00
2022-11-05T06:02:02.164Z,101457.78
2022-11-05T06:04:30.032Z,101458.66
2022-11-05T06:06:57.924Z,101460.50
2022-11-05T06:09:25.933Z,101464.06
2022-11-05T06:11:53.778Z,101471.13
2022-11-05T06:14:22.000Z,101472.88
2022-11-05T06:16:49.698Z,101477.28
2022-11-05T06:19:19.028Z,101477.28
2022-11-05T06:21:46.928Z,101471.09
2022-11-05T06:24:14.775Z,101483.50
2022-11-05T06:26:43.540Z,101483.50
2022-11-05T06:29:11.533Z,101491.47
2022-11-05T06:31:39.351Z,101485.25
2022-11-05T06:34:07.198Z,101488.81
2022-11-05T06:36:36.396Z,101499.44
2022-11-05T06:39:04.786Z,101503.84
2022-11-05T06:41:45.683Z,101504.78
2022-11-05T06:44:21.510Z,101516.31
2022-11-05T06:46:49.365Z,101520.78
2022-11-05T06:49:17.118Z,101519.00
2022-11-05T06:51:46.593Z,101523.44
2022-11-05T06:54:14.382Z,101522.56
2022-11-05T06:56:42.187Z,101520.81
2022-11-05T06:59:10.000Z,101527.94
2022-11-05T07:01:38.596Z,101531.47
2022-11-05T07:04:06.452Z,101535.09
2022-11-05T07:06:36.999Z,101533.34
2022-11-05T07:09:06.686Z,101536.94
2022-11-05T07:11:34.470Z,101531.63
2022-11-05T07:14:02.488Z,101535.19
2022-11-05T07:16:30.307Z,101532.56
2022-11-05T07:18:58.186Z,101533.50
2022-11-05T07:21:26.199Z,101534.41
2022-11-05T07:23:54.152Z,101542.38
2022-11-05T07:26:23.423Z,101547.75
2022-11-05T07:28:51.212Z,101540.69
2022-11-05T07:31:19.041Z,101551.31
2022-11-05T07:33:46.803Z,101558.41
2022-11-05T07:36:14.916Z,101554.88
2022-11-05T07:38:42.714Z,101565.53
2022-11-05T07:41:10.519Z,101561.09
2022-11-05T07:43:39.736Z,101560.28
2022-11-05T07:46:12.663Z,101567.47
2022-11-05T07:48:41.587Z,101569.34
2022-11-05T07:51:09.412Z,101572.97
2022-11-05T07:53:42.446Z,101569.47
2022-11-05T07:56:13.493Z,101571.34
2022-11-05T07:58:43.234Z,101565.13
2022-11-05T08:01:11.169Z,101578.50
2022-11-05T08:03:39.127Z,101577.63
2022-11-05T08:06:07.477Z,101563.50
2022-11-05T08:08:35.672Z,101563.50
2022-11-05T08:11:04.854Z,101567.16
2022-11-05T08:13:32.698Z,101555.69
2022-11-05T08:16:02.637Z,101558.38
2022-11-05T08:18:32.361Z,101560.19
2022-11-05T08:21:01.663Z,101563.75
2022-11-05T08:23:30.594Z,101562.97
2022-11-05T08:25:59.335Z,101571.88
2022-11-05T08:28:27.879Z,101564.00
2022-11-05T08:30:57.820Z,101563.19
2022-11-05T08:33:32.101Z,101559.72
2022-11-05T08:36:04.075Z,101564.22
2022-11-05T08:38:32.523Z,101558.06
2022-11-05T08:41:00.784Z,101566.09
2022-11-05T08:43:28.721Z,101570.63
2022-11-05T08:45:56.778Z,101574.28
2022-11-05T08:48:26.472Z,101570.84
2022-11-05T08:50:54.778Z,101575.38
2022-11-05T08:53:22.614Z,101578.13
2022-11-05T08:55:51.561Z,101577.38
2022-11-05T08:58:20.819Z,101569.44
2022-11-05T09:00:51.147Z,101568.66
2022-11-05T09:03:19.372Z,101573.19
2022-11-05T09:05:49.524Z,101564.34
2022-11-05T09:08:19.791Z,101579.56
2022-11-05T09:10:49.841Z,101576.06
2022-11-05T09:13:19.880Z,101578.78
2022-11-05T09:15:48.920Z,101585.06
2022-11-05T09:18:18.100Z,101588.69
2022-11-05T09:20:49.247Z,101587.78
2022-11-05T09:23:18.494Z,101588.69
2022-11-05T09:25:46.441Z,101593.16
2022-11-05T09:28:17.436Z,101595.78
2022-11-05T09:30:47.500Z,101582.44
2022-11-05T09:33:16.770Z,101588.69
2022-11-05T09:35:44.802Z,101591.34
2022-11-05T09:38:14.957Z,101591.38
2022-11-05T09:40:50.053Z,101584.25
2022-11-05T09:43:20.471Z,101587.84
2022-11-05T09:45:51.366Z,101587.00
2022-11-05T09:48:22.570Z,101589.69
2022-11-05T09:50:53.298Z,101591.53
2022-11-05T09:53:23.756Z,101586.22
2022-11-05T09:55:56.140Z,101593.38
2022-11-05T09:58:30.341Z,101603.19
2022-11-05T10:00:59.634Z,101592.56
2022-11-05T10:03:31.073Z,101595.25
2022-11-05T10:06:08.635Z,101598.81
2022-11-05T10:08:41.242Z,101595.31
2022-11-05T10:11:17.030Z,101598.94
2022-11-05T10:13:48.756Z,101590.03
2022-11-05T10:16:24.441Z,101595.41
2022-11-05T10:18:58.108Z,101595.41
2022-11-05T10:21:51.338Z,101596.31
2022-11-05T10:24:16.744Z,101585.63
2022-11-05T10:26:49.003Z,101595.44
2022-11-05T10:29:23.600Z,101588.34
2022-11-05T10:31:54.307Z,101594.59
2022-11-05T10:34:24.623Z,101596.38
2022-11-05T10:36:54.272Z,101591.91
2022-11-05T10:39:23.455Z,101598.16
2022-11-05T10:42:09.744Z,101600.84
2022-11-05T10:44:45.254Z,101602.63
2022-11-05T10:47:34.427Z,101604.41
2022-11-05T10:50:04.003Z,101600.84
2022-11-05T10:52:44.292Z,101603.53
2022-11-05T10:55:18.166Z,101601.72
2022-11-05T10:57:49.454Z,101602.63
2022-11-05T11:00:22.494Z,101603.53
2022-11-05T11:02:52.262Z,101599.03
2022-11-05T11:05:23.118Z,101598.16
2022-11-05T11:07:57.421Z,101606.22
2022-11-05T11:10:26.806Z,101600.84
2022-11-05T11:12:57.550Z,101601.75
2022-11-05T11:15:28.382Z,101599.06
2022-11-05T11:17:57.020Z,101601.72
2022-11-05T11:20:28.357Z,101601.72
2022-11-05T11:23:04.775Z,101613.34
2022-11-05T11:25:45.742Z,101600.78
2022-11-05T11:28:21.466Z,101607.03
2022-11-05T11:30:56.820Z,101599.88
2022-11-05T11:33:28.577Z,101608.84
2022-11-05T11:35:57.825Z,101607.06
2022-11-05T11:38:26.637Z,101605.28
2022-11-05T11:41:02.779Z,101608.81
2022-11-05T11:43:36.632Z,101605.28
2022-11-05T11:46:09.910Z,101608.81
2022-11-05T11:48:42.193Z,101604.38
2022-11-05T11:51:30.246Z,101598.13
2022-11-05T11:53:59.402Z,101604.38
2022-11-05T11:56:29.077Z,101614.19
2022-11-05T11:59:02.431Z,101601.72
2022-11-05T12:01:53.433Z,101602.56
2022-11-05T12:04:40.075Z,101603.47
2022-11-05T12:07:18.970Z,101609.72
2022-11-05T12:10:15.532Z,101603.44
2022-11-05T12:12:59.786Z,101604.28
2022-11-05T12:15:42.520Z,101599.84
2022-11-05T12:18:14.436Z,101599.84
2022-11-05T12:21:40.792Z,101601.59
2022-11-05T12:24:29.654Z,101595.28
2022-11-05T12:53:29.348Z,101583.59
2022-11-05T12:57:28.390Z,101573.75
2022-11-05T13:54:59.263Z,101538.09
2022-11-05T13:57:57.776Z,101531.84
2022-11-05T14:00:57.436Z,101528.25
2022-11-05T14:03:28.265Z,101535.41
2022-11-05T14:06:07.160Z,101529.09
2022-11-05T14:08:42.801Z,101532.69
2022-11-05T14:11:23.633Z,101544.28
2022-11-05T14:14:07.889Z,101546.97
2022-11-05T14:16:53.266Z,101532.66
2022-11-05T14:19:36.994Z,101522.84
2022-11-05T14:23:06.035Z,101521.06
2022-11-05T14:26:13.156Z,101513.94
2022-11-05T14:28:47.817Z,101509.50
2022-11-05T14:32:07.316Z,101510.38
2022-11-05T14:34:48.333Z,101509.53
2022-11-05T14:37:34.131Z,101507.75
2022-11-05T14:40:27.265Z,101501.53
2022-11-05T14:42:58.028Z,101507.78
2022-11-05T14:45:31.640Z,101510.47
2022-11-05T14:48:05.629Z,101516.75
2022-11-05T14:50:40.141Z,101513.16
2022-11-05T14:53:26.920Z,101510.47
2022-11-05T14:56:01.580Z,101521.19
2022-11-05T14:58:32.689Z,101511.38
2022-11-05T15:01:05.228Z,101513.13
2022-11-05T15:04:05.805Z,101510.44
2022-11-05T15:06:36.427Z,101506.88
2022-11-05T15:09:27.885Z,101517.63
2022-11-05T15:12:05.251Z,101506.94
2022-11-05T15:14:35.864Z,101498.00
2022-11-05T15:17:16.844Z,101505.13
2022-11-05T15:19:45.917Z,101499.78
2022-11-05T15:22:27.670Z,101498.88
2022-11-05T15:24:56.322Z,101501.56
2022-11-05T15:27:37.014Z,101507.84
2022-11-05T15:30:16.110Z,101490.88
2022-11-05T15:32:45.597Z,101502.50
2022-11-05T15:35:27.229Z,101502.53
2022-11-05T15:38:02.573Z,101487.34
2022-11-05T15:40:33.916Z,101492.72
2022-11-05T15:43:17.738Z,101490.94
2022-11-05T15:45:59.395Z,101490.06
2022-11-05T15:48:28.777Z,101487.41
2022-11-05T15:50:56.895Z,101490.94
2022-11-05T15:53:56.000Z,101499.00
2022-11-05T15:56:30.070Z,101500.81
2022-11-05T15:59:02.065Z,101500.81
2022-11-05T16:01:33.130Z,101504.38
2022-11-05T16:04:11.815Z,101503.47
2022-11-05T16:06:42.052Z,101503.50
2022-11-05T16:09:22.615Z,101500.81
2022-11-05T16:11:54.602Z,101502.59
2022-11-05T16:14:22.538Z,101513.28
2022-11-05T16:16:50.420Z,101507.06
2022-11-05T16:19:40.475Z,101522.25
2022-11-05T16:22:09.198Z,101513.31
2022-11-05T16:24:40.344Z,101509.75
2022-11-05T16:27:19.352Z,101515.13
2022-11-05T16:29:53.591Z,101507.97
2022-11-05T16:32:30.183Z,101507.94
2022-11-05T16:35:02.867Z,101519.56
2022-11-05T16:37:37.898Z,101510.63
2022-11-05T16:40:14.395Z,101513.31
2022-11-05T16:42:43.556Z,101517.78
2022-11-05T16:45:14.927Z,101511.50
2022-11-05T16:47:44.336Z,101506.16
2022-11-05T16:50:23.375Z,101509.72
2022-11-05T16:52:51.643Z,101512.38
2022-11-05T16:55:20.920Z,101503.47
2022-11-05T16:57:52.227Z,101507.03
2022-11-05T17:00:21.911Z,101506.13
2022-11-05T17:02:50.300Z,101496.31
2022-11-05T17:05:22.789Z,101502.56
2022-11-05T17:07:50.956Z,101500.75
2022-11-05T17:10:19.662Z,101499.88
2022-11-05T17:12:47.771Z,101496.31
2022-11-05T17:15:20.931Z,101502.59
2022-11-05T17:17:49.233Z,101498.06
2022-11-05T17:20:35.000Z,101495.41
2022-11-05T17:23:07.219Z,101499.91
2022-11-05T17:25:35.392Z,101495.44
2022-11-05T17:28:03.430Z,101497.25
2022-11-05T17:30:31.409Z,101491.88
2022-11-05T17:32:59.294Z,101495.47
2022-11-05T17:35:28.584Z,101497.22
2022-11-05T17:37:56.306Z,101490.09
2022-11-05T17:40:25.090Z,101495.47
2022-11-05T17:42:53.207Z,101492.78
2022-11-05T17:45:21.082Z,101495.47
2022-11-05T17:47:48.889Z,101497.25
2022-11-05T17:50:18.630Z,101501.75
2022-11-05T17:52:47.870Z,101498.16
2022-11-05T17:55:18.240Z,101504.41
2022-11-05T17:57:48.182Z,101505.31
2022-11-05T18:00:17.957Z,101508.00
2022-11-05T18:02:46.138Z,101511.56
2022-11-05T18:05:14.465Z,101512.44
2022-11-05T18:07:42.674Z,101523.16
2022-11-05T18:10:12.016Z,101517.81
2022-11-05T18:12:40.601Z,101520.50
2022-11-05T18:15:09.334Z,101518.72
2022-11-05T18:17:37.726Z,101521.41
2022-11-05T18:20:11.622Z,101523.16
2022-11-05T18:22:42.764Z,101524.97
2022-11-05T18:25:13.853Z,101512.47
2022-11-05T18:27:41.899Z,101516.97
2022-11-05T18:30:11.645Z,101516.94
2022-11-05T18:32:40.087Z,101507.16
2022-11-05T18:35:08.390Z,101512.50
2022-11-05T18:37:37.604Z,101500.88
2022-11-05T18:40:06.137Z,101501.78
2022-11-05T18:42:35.295Z,101505.34
2022-11-05T18:45:03.201Z,101504.44
2022-11-05T18:47:32.489Z,101496.44
2022-11-05T18:50:00.379Z,101500.00
2022-11-05T18:52:28.340Z,101491.97
2022-11-05T18:54:56.134Z,101506.25
2022-11-05T18:57:23.875Z,101506.22
2022-11-05T18:59:53.090Z,101503.56
2022-11-05T19:02:20.939Z,101501.78
2022-11-05T19:05:13.980Z,101505.34
2022-11-05T19:07:37.486Z,101506.25
2022-11-05T19:10:06.063Z,101511.63
2022-11-05T19:12:33.849Z,101508.00
2022-11-05T19:15:03.469Z,101506.25
2022-11-05T19:17:32.885Z,101503.56
2022-11-05T19:20:00.713Z,101508.94
2022-11-05T19:22:28.770Z,101502.66
2022-11-05T19:24:56.543Z,101504.47
2022-11-05T19:27:24.376Z,101510.72
2022-11-05T19:29:52.790Z,101500.00
2022-11-05T19:32:23.117Z,101502.69
2022-11-05T19:34:50.887Z,101497.34
2022-11-05T19:37:19.698Z,101489.31
2022-11-05T19:39:47.496Z,101480.38
2022-11-05T19:42:15.304Z,101484.84
2022-11-05T19:44:43.131Z,101486.66
2022-11-05T19:47:11.385Z,101483.06
2022-11-05T19:49:40.779Z,101479.53
2022-11-05T19:52:08.636Z,101484.88
2022-11-05T19:54:36.676Z,101500.03
2022-11-05T19:57:06.322Z,101495.59
2022-11-05T19:59:34.140Z,101508.06
2022-11-05T20:02:02.080Z,101521.44
2022-11-05T20:04:30.210Z,101517.00
2022-11-05T20:06:59.568Z,101511.63
2022-11-05T20:09:27.600Z,101512.53
2022-11-05T20:11:56.506Z,101507.19
2022-11-05T20:14:26.292Z,101505.38
2022-11-05T20:16:54.604Z,101507.16
2022-11-05T20:19:23.640Z,101500.06
2022-11-05T20:21:51.778Z,101492.00
2022-11-05T20:24:25.070Z,101506.28
2022-11-05T20:26:54.335Z,101508.97
2022-11-05T20:29:23.525Z,101505.41
2022-11-05T20:31:52.674Z,101500.03
2022-11-05T20:34:20.708Z,101512.50
2022-11-05T20:36:48.751Z,101523.22
2022-11-05T20:39:18.362Z,101513.41
2022-11-05T20:41:47.961Z,101517.00
2022-11-05T20:44:16.617Z,101521.44
2022-11-05T20:46:45.073Z,101515.19
2022-11-05T20:49:13.429Z,101524.13
2022-11-05T20:51:41.650Z,101536.63
2022-11-05T20:54:11.038Z,101527.69
2022-11-05T20:56:39.811Z,101522.34
2022-11-05T20:59:10.052Z,101514.31
2022-11-05T21:01:38.557Z,101525.03
2022-11-05T21:04:07.059Z,101504.53
2022-11-05T21:06:36.864Z,101519.66
2022-11-05T21:09:06.184Z,101511.63
2022-11-05T21:11:54.748Z,101498.25
2022-11-05T21:14:24.470Z,101495.56
2022-11-05T21:16:53.113Z,101489.34
2022-11-05T21:19:23.946Z,101483.13
2022-11-05T21:21:52.146Z,101487.56
2022-11-05T21:24:20.056Z,101488.47
2022-11-05T21:26:49.958Z,101491.16
2022-11-05T21:29:18.071Z,101491.13
2022-11-05T21:31:48.004Z,101484.91
2022-11-05T21:34:16.187Z,101503.63
2022-11-05T21:36:44.039Z,101509.84
2022-11-05T21:39:13.672Z,101512.53
2022-11-05T21:41:42.618Z,101502.75
2022-11-05T21:44:10.722Z,101508.97
2022-11-05T21:46:38.827Z,101506.28
2022-11-05T21:49:07.993Z,101500.06
2022-11-05T21:51:53.189Z,101486.69
2022-11-05T21:54:38.120Z,101489.34
2022-11-05T21:57:23.430Z,101492.91
2022-11-05T21:59:55.050Z,101491.13
2022-11-05T22:02:25.523Z,101488.47
2022-11-05T22:04:56.411Z,101491.13
2022-11-05T22:07:27.880Z,101478.66
2022-11-05T22:09:56.139Z,101476.84
2022-11-05T22:12:25.400Z,101475.09
2022-11-05T22:14:55.898Z,101465.28
2022-11-05T22:17:24.280Z,101453.66
2022-11-05T22:19:52.432Z,101451.91
2022-11-05T22:22:21.947Z,101445.66
2022-11-05T22:24:49.779Z,101440.31
2022-11-05T22:27:21.406Z,101435.84
2022-11-05T22:29:49.663Z,101434.09
2022-11-05T22:32:17.900Z,101435.84
2022-11-05T22:34:45.746Z,101433.19
2022-11-05T22:37:14.033Z,101438.56
2022-11-05T22:39:43.174Z,101431.41
2022-11-05T22:42:11.014Z,101434.97
2022-11-05T22:44:38.929Z,101437.63
2022-11-05T22:47:07.516Z,101434.09
2022-11-05T22:49:35.948Z,101430.53
2022-11-05T22:52:03.779Z,101435.88
2022-11-05T22:54:36.360Z,101425.16
2022-11-05T22:57:08.657Z,101421.59
2022-11-05T22:59:36.481Z,101418.03
2022-11-05T23:02:09.497Z,101424.28
2022-11-05T23:04:38.033Z,101426.97
2022-11-05T23:07:27.924Z,101415.34
2022-11-05T23:10:14.036Z,101426.94
2022-11-05T23:12:44.720Z,101429.59
2022-11-05T23:15:34.481Z,101436.75
2022-11-05T23:18:20.476Z,101434.09
2022-11-05T23:21:06.168Z,101418.91
2022-11-05T23:23:51.319Z,101418.03
2022-11-05T23:26:39.271Z,101419.81
2022-11-05T23:29:08.536Z,101417.16
2022-11-05T23:31:53.851Z,101426.97
2022-11-05T23:34:21.562Z,101420.69
2022-11-05T23:37:06.939Z,101426.94
2022-11-05T23:39:38.379Z,101423.38
2022-11-05T23:42:26.756Z,101415.38
2022-11-05T23:45:14.784Z,101406.44
2022-11-05T23:48:00.776Z,101419.81
2022-11-05T23:50:29.214Z,101406.44
2022-11-05T23:52:56.961Z,101400.19
2022-11-05T23:55:25.701Z,101410.00
2022-11-05T23:57:53.590Z,101401.06
